createdAt,value
2024-01-07T00:01:48.957Z,16.48
2024-01-07T00:11:33.397Z,14.68
2024-01-07T00:14:00.811Z,14.40
2024-01-07T00:16:43.415Z,14.45
2024-01-07T00:19:10.959Z,13.30
2024-01-07T00:21:38.474Z,13.30
2024-01-07T00:24:14.437Z,13.98
2024-01-07T00:26:42.011Z,13.82
2024-01-07T00:29:09.558Z,14.77
2024-01-07T00:31:46.482Z,13.90
2024-01-07T00:34:46.706Z,15.68
2024-01-07T00:37:22.327Z,16.40
2024-01-07T00:39:57.908Z,18.65
2024-01-07T00:43:10.467Z,18.27
2024-01-07T00:46:01.906Z,20.23
2024-01-07T00:48:37.729Z,16.88
2024-01-07T00:51:13.158Z,17.17
2024-01-07T00:54:18.230Z,16.55
2024-01-07T00:57:11.631Z,17.60
2024-01-07T00:59:48.360Z,17.10
2024-01-07T01:02:18.816Z,18.23
2024-01-07T01:04:56.565Z,17.98
2024-01-07T01:07:24.044Z,19.48
2024-01-07T01:09:55.483Z,19.23
2024-01-07T01:12:32.413Z,17.17
2024-01-07T01:14:59.867Z,14.30
2024-01-07T01:17:27.359Z,14.35
2024-01-07T01:20:03.403Z,13.43
2024-01-07T01:22:31.039Z,13.10
2024-01-07T01:24:58.795Z,13.25
2024-01-07T01:27:34.597Z,14.93
2024-01-07T01:30:02.095Z,13.70
2024-01-07T01:32:29.630Z,13.70
2024-01-07T01:35:04.383Z,14.00
2024-01-07T01:37:33.942Z,13.73
2024-01-07T01:40:01.497Z,13.07
2024-01-07T01:42:37.470Z,12.02
2024-01-07T01:45:08.285Z,12.82
2024-01-07T01:47:45.480Z,12.00
2024-01-07T01:50:12.886Z,11.98
2024-01-07T01:52:40.439Z,12.88
2024-01-07T01:55:17.473Z,11.77
2024-01-07T01:57:49.327Z,10.98
2024-01-07T02:00:26.746Z,11.48
2024-01-07T02:02:55.732Z,10.27
2024-01-07T02:05:25.786Z,11.15
2024-01-07T02:08:02.384Z,9.82
2024-01-07T02:10:29.845Z,10.73
2024-01-07T02:13:00.174Z,10.48
2024-01-07T02:15:34.454Z,11.07
2024-01-07T02:18:04.414Z,9.48
2024-01-07T02:20:31.904Z,9.80
2024-01-07T02:23:05.455Z,9.95
2024-01-07T02:25:37.915Z,8.93
2024-01-07T02:28:12.577Z,9.27
2024-01-07T02:30:40.148Z,8.85
2024-01-07T02:33:07.707Z,8.38
2024-01-07T02:35:44.461Z,8.82
2024-01-07T02:38:11.988Z,9.02
2024-01-07T02:40:40.894Z,8.98
2024-01-07T02:43:15.454Z,9.25
2024-01-07T02:45:45.544Z,10.70
2024-01-07T02:48:27.754Z,9.80
2024-01-07T02:50:55.261Z,10.15
2024-01-07T02:53:33.617Z,8.77
2024-01-07T02:56:07.302Z,9.30
2024-01-07T02:58:45.790Z,8.90
2024-01-07T03:01:13.356Z,9.40
2024-01-07T03:03:42.728Z,8.90
2024-01-07T03:06:16.382Z,10.02
2024-01-07T03:08:43.948Z,9.93
2024-01-07T03:11:12.831Z,9.27
2024-01-07T03:13:47.386Z,10.05
2024-01-07T03:16:21.255Z,13.18
2024-01-07T03:18:55.601Z,11.90
2024-01-07T03:21:24.058Z,9.90
2024-01-07T03:23:51.946Z,10.90
2024-01-07T03:26:28.411Z,9.68
2024-01-07T03:28:55.774Z,9.73
2024-01-07T03:31:23.328Z,10.32
2024-01-07T03:33:57.689Z,10.38
2024-01-07T03:36:25.298Z,12.98
2024-01-07T03:38:52.732Z,11.30
2024-01-07T03:41:28.440Z,10.45
2024-01-07T03:43:56.237Z,9.90
2024-01-07T03:46:23.701Z,9.18
2024-01-07T03:48:57.598Z,7.10
2024-01-07T03:51:25.271Z,7.10
2024-01-07T03:53:52.629Z,8.50
2024-01-07T03:56:34.421Z,8.68
2024-01-07T03:59:01.884Z,9.15
2024-01-07T04:01:29.464Z,9.95
2024-01-07T04:04:03.624Z,8.55
2024-01-07T04:06:31.116Z,6.88
2024-01-07T04:08:58.654Z,6.80
2024-01-07T04:11:34.429Z,6.85
2024-01-07T04:14:02.010Z,6.82
2024-01-07T04:16:29.387Z,7.05
2024-01-07T04:19:03.502Z,6.30
2024-01-07T04:21:31.028Z,6.80
2024-01-07T04:23:58.473Z,6.50
2024-01-07T04:26:34.456Z,6.43
2024-01-07T04:29:01.958Z,18.83
2024-01-07T04:31:29.498Z,19.05
2024-01-07T04:34:03.577Z,15.20
2024-01-07T04:36:31.455Z,13.05
2024-01-07T04:38:58.935Z,9.70
2024-01-07T04:41:34.545Z,8.55
2024-01-07T04:44:01.893Z,7.63
2024-01-07T04:46:29.312Z,6.97
2024-01-07T04:49:03.577Z,6.82
2024-01-07T04:51:31.024Z,6.28
2024-01-07T04:53:58.437Z,6.43
2024-01-07T04:56:33.441Z,6.45
2024-01-07T04:59:00.954Z,6.93
2024-01-07T05:01:28.558Z,5.90
2024-01-07T05:04:10.522Z,6.65
2024-01-07T05:06:38.244Z,6.53
2024-01-07T05:09:05.690Z,6.97
2024-01-07T05:11:41.497Z,6.57
2024-01-07T05:14:15.689Z,6.70
2024-01-07T05:16:49.537Z,6.68
2024-01-07T05:19:17.195Z,6.63
2024-01-07T05:21:44.743Z,5.90
2024-01-07T05:24:18.545Z,6.15
2024-01-07T05:26:47.363Z,5.82
2024-01-07T05:29:14.881Z,6.18
2024-01-07T05:31:48.704Z,5.68
2024-01-07T05:34:16.557Z,6.78
2024-01-07T05:36:44.135Z,6.32
2024-01-07T05:39:18.501Z,5.78
2024-01-07T05:41:47.376Z,5.78
2024-01-07T05:44:14.832Z,5.47
2024-01-07T05:46:48.537Z,6.00
2024-01-07T05:49:16.154Z,6.55
2024-01-07T05:51:43.813Z,6.20
2024-01-07T05:54:17.462Z,6.25
2024-01-07T05:56:46.353Z,6.30
2024-01-07T05:59:13.853Z,5.85
2024-01-07T06:01:47.493Z,6.50
2024-01-07T06:04:15.149Z,5.63
2024-01-07T06:06:42.818Z,6.25
2024-01-07T06:09:16.485Z,5.85
2024-01-07T06:11:43.980Z,5.93
2024-01-07T06:14:12.932Z,6.72
2024-01-07T06:16:46.597Z,6.68
2024-01-07T06:19:14.249Z,5.45
2024-01-07T06:21:41.772Z,5.90
2024-01-07T06:24:16.463Z,5.50
2024-01-07T06:26:44.247Z,4.47
2024-01-07T06:29:13.200Z,4.03
2024-01-07T06:31:51.540Z,3.90
2024-01-07T06:34:19.131Z,3.80
2024-01-07T06:36:46.666Z,3.63
2024-01-07T06:39:20.560Z,4.45
2024-01-07T06:41:48.242Z,3.47
2024-01-07T06:44:17.340Z,3.63
2024-01-07T06:46:51.501Z,3.85
2024-01-07T06:49:18.974Z,3.15
2024-01-07T06:51:46.681Z,3.35
2024-01-07T06:54:20.491Z,3.47
2024-01-07T06:56:47.935Z,3.63
2024-01-07T06:59:16.721Z,3.95
2024-01-07T07:01:50.618Z,6.03
2024-01-07T07:04:18.253Z,23.85
2024-01-07T07:06:45.785Z,96.13
2024-01-07T07:09:19.547Z,50.28
2024-01-07T07:11:47.055Z,15.82
2024-01-07T07:14:15.886Z,7.15
2024-01-07T07:16:49.547Z,6.20
2024-01-07T07:19:17.028Z,8.30
2024-01-07T07:21:45.282Z,7.07
2024-01-07T07:24:19.636Z,6.32
2024-01-07T07:26:47.055Z,5.35
2024-01-07T07:29:16.020Z,5.03
2024-01-07T07:31:50.610Z,7.55
2024-01-07T07:34:18.143Z,7.03
2024-01-07T07:36:45.664Z,5.60
2024-01-07T07:39:19.600Z,5.63
2024-01-07T07:41:47.187Z,5.80
2024-01-07T07:44:15.969Z,6.43
2024-01-07T07:46:49.601Z,6.38
2024-01-07T07:49:17.185Z,6.13
2024-01-07T07:51:45.319Z,6.88
2024-01-07T07:54:19.594Z,6.25
2024-01-07T07:56:47.233Z,8.68
2024-01-07T07:59:16.338Z,12.38
2024-01-07T08:01:50.717Z,11.45
2024-01-07T08:04:18.341Z,7.93
2024-01-07T08:06:45.990Z,6.55
2024-01-07T08:09:19.598Z,6.07
2024-01-07T08:11:47.133Z,5.63
2024-01-07T08:14:16.174Z,5.28
2024-01-07T08:16:50.685Z,5.40
2024-01-07T08:19:18.277Z,4.95
2024-01-07T08:21:45.895Z,6.50
2024-01-07T08:24:19.581Z,7.72
2024-01-07T08:26:47.215Z,7.68
2024-01-07T08:29:16.332Z,9.32
2024-01-07T08:32:11.391Z,8.30
2024-01-07T08:34:44.432Z,6.63
2024-01-07T08:37:18.599Z,7.18
2024-01-07T08:39:46.168Z,23.55
2024-01-07T08:42:13.676Z,19.75
2024-01-07T08:44:49.721Z,14.10
2024-01-07T08:47:17.563Z,16.23
2024-01-07T08:49:50.991Z,15.77
2024-01-07T08:52:27.682Z,14.50
2024-01-07T08:54:55.239Z,14.80
2024-01-07T08:57:40.038Z,19.95
2024-01-07T09:00:19.353Z,18.52
2024-01-07T09:03:23.497Z,17.13
2024-01-07T09:06:02.087Z,14.40
2024-01-07T09:08:36.674Z,15.50
2024-01-07T09:11:05.887Z,14.50
2024-01-07T09:13:33.499Z,13.02
2024-01-07T09:16:08.717Z,11.90
2024-01-07T09:18:36.654Z,10.23
2024-01-07T09:21:07.050Z,9.07
2024-01-07T09:23:40.631Z,7.15
2024-01-07T09:26:10.442Z,7.72
2024-01-07T09:28:38.014Z,9.68
2024-01-07T09:31:13.953Z,9.65
2024-01-07T09:33:44.446Z,10.13
2024-01-07T09:36:29.682Z,9.02
2024-01-07T09:39:01.490Z,8.88
2024-01-07T09:41:37.669Z,11.05
2024-01-07T09:44:07.073Z,15.50
2024-01-07T09:46:48.641Z,16.50
2024-01-07T09:49:16.378Z,15.52
2024-01-07T09:51:44.142Z,15.30
2024-01-07T09:54:20.486Z,17.88
2024-01-07T09:56:52.094Z,21.27
2024-01-07T09:59:28.689Z,31.05
2024-01-07T10:01:58.144Z,42.03
2024-01-07T10:04:25.983Z,44.70
2024-01-07T10:07:00.681Z,50.20
2024-01-07T10:09:34.540Z,43.40
2024-01-07T10:12:11.705Z,34.75
2024-01-07T10:14:41.388Z,22.67
2024-01-07T10:17:26.392Z,13.38
2024-01-07T10:20:05.392Z,11.23
2024-01-07T10:22:43.493Z,11.55
2024-01-07T10:25:13.699Z,8.77
2024-01-07T10:27:41.281Z,7.30
2024-01-07T10:30:17.794Z,6.90
2024-01-07T10:32:46.678Z,5.97
2024-01-07T10:35:14.671Z,5.50
2024-01-07T10:37:48.645Z,6.07
2024-01-07T10:40:16.303Z,5.88
2024-01-07T10:42:58.843Z,5.82
2024-01-07T10:45:28.248Z,6.15
2024-01-07T10:48:08.057Z,5.43
2024-01-07T10:50:37.866Z,6.05
2024-01-07T10:53:08.373Z,11.82
2024-01-07T10:55:42.641Z,15.57
2024-01-07T10:58:12.838Z,20.70
2024-01-07T11:00:40.530Z,21.48
2024-01-07T11:03:19.703Z,16.58
2024-01-07T11:05:58.099Z,16.10
2024-01-07T11:08:36.754Z,24.55
2024-01-07T11:11:13.636Z,19.30
2024-01-07T11:13:50.123Z,15.05
2024-01-07T11:16:44.094Z,12.35
2024-01-07T11:19:20.734Z,12.40
2024-01-07T11:21:48.436Z,16.73
2024-01-07T11:24:54.748Z,19.33
2024-01-07T11:27:23.616Z,18.20
2024-01-07T11:30:03.639Z,16.98
2024-01-07T11:32:31.481Z,15.20
2024-01-07T11:35:10.986Z,12.57
2024-01-07T11:37:38.785Z,12.93
2024-01-07T11:40:09.222Z,10.25
2024-01-07T11:42:43.936Z,8.57
2024-01-07T11:45:14.094Z,8.25
2024-01-07T11:47:41.677Z,12.55
2024-01-07T11:50:17.742Z,12.63
2024-01-07T11:52:45.306Z,7.95
2024-01-07T11:55:14.401Z,7.88
2024-01-07T11:57:56.782Z,7.10
2024-01-07T12:00:36.484Z,6.32
2024-01-07T12:03:14.737Z,5.85
2024-01-07T12:05:44.926Z,5.43
2024-01-07T12:08:16.796Z,5.60
2024-01-07T12:10:56.928Z,5.65
2024-01-07T12:13:25.248Z,5.13
2024-01-07T12:16:01.728Z,5.47
2024-01-07T12:18:29.706Z,6.15
2024-01-07T12:21:33.099Z,5.78
2024-01-07T12:24:00.596Z,6.18
2024-01-07T12:26:28.490Z,16.15
2024-01-07T12:29:03.714Z,15.00
2024-01-07T12:31:33.307Z,11.82
2024-01-07T12:34:02.963Z,7.30
2024-01-07T12:36:39.747Z,6.45
2024-01-07T12:39:07.206Z,5.50
2024-01-07T12:41:36.884Z,5.78
2024-01-07T12:44:11.084Z,5.57
2024-01-07T12:46:38.598Z,6.28
2024-01-07T12:49:07.198Z,6.35
2024-01-07T12:51:46.056Z,6.07
2024-01-07T12:54:14.733Z,6.20
2024-01-07T12:56:42.173Z,6.40
2024-01-07T12:59:16.755Z,5.80
2024-01-07T13:01:45.583Z,7.22
2024-01-07T13:04:13.254Z,6.30
2024-01-07T13:06:51.463Z,6.60
2024-01-07T13:09:18.977Z,6.35
2024-01-07T13:11:46.440Z,7.05
2024-01-07T13:14:20.721Z,6.68
2024-01-07T13:16:48.105Z,6.65
2024-01-07T13:19:15.632Z,6.85
2024-01-07T13:21:50.714Z,6.90
2024-01-07T13:24:18.128Z,6.40
2024-01-07T13:26:45.528Z,6.88
2024-01-07T13:29:22.191Z,6.35
2024-01-07T13:31:49.649Z,6.60
2024-01-07T13:34:20.509Z,6.85
2024-01-07T13:36:57.764Z,6.65
2024-01-07T13:39:25.248Z,6.65
2024-01-07T13:41:54.938Z,6.07
2024-01-07T13:44:28.734Z,6.65
2024-01-07T13:46:56.142Z,6.20
2024-01-07T13:49:36.887Z,6.47
2024-01-07T13:52:06.426Z,7.13
2024-01-07T13:54:36.246Z,7.22
2024-01-07T13:57:10.742Z,7.05
2024-01-07T13:59:38.231Z,6.97
2024-01-07T14:02:07.363Z,6.55
2024-01-07T14:04:43.702Z,6.93
2024-01-07T14:07:12.561Z,9.48
2024-01-07T14:09:39.903Z,12.55
2024-01-07T14:12:13.757Z,9.32
2024-01-07T14:14:41.122Z,7.65
2024-01-07T14:17:08.486Z,7.30
2024-01-07T14:19:42.832Z,7.25
2024-01-07T14:22:11.626Z,7.90
2024-01-07T14:24:39.034Z,6.57
2024-01-07T14:27:12.737Z,8.18
2024-01-07T14:29:42.856Z,9.27
2024-01-07T14:32:12.216Z,16.58
2024-01-07T14:34:46.734Z,15.90
2024-01-07T14:37:22.227Z,15.68
2024-01-07T14:39:55.792Z,14.32
2024-01-07T14:42:23.201Z,13.13
2024-01-07T14:44:51.540Z,11.85
2024-01-07T14:47:25.743Z,11.45
2024-01-07T14:49:53.085Z,10.40
2024-01-07T14:52:21.789Z,9.50
2024-01-07T14:54:55.797Z,9.77
2024-01-07T14:57:23.196Z,8.82
2024-01-07T14:59:50.454Z,8.77
2024-01-07T15:02:24.755Z,9.43
2024-01-07T15:04:52.178Z,9.70
2024-01-07T15:07:21.873Z,9.68
2024-01-07T15:09:55.772Z,9.75
2024-01-07T15:12:23.133Z,9.05
2024-01-07T15:14:50.453Z,9.23
2024-01-07T15:17:24.753Z,10.13
2024-01-07T15:19:52.268Z,9.93
2024-01-07T15:22:40.118Z,13.88
2024-01-07T15:25:15.820Z,18.80
2024-01-07T15:27:43.282Z,20.52
2024-01-07T15:30:11.318Z,21.55
2024-01-07T15:32:44.783Z,19.30
2024-01-07T15:35:12.141Z,17.13
2024-01-07T15:37:40.917Z,11.60
2024-01-07T15:40:15.864Z,9.45
2024-01-07T15:42:43.274Z,10.93
2024-01-07T15:45:10.944Z,11.50
2024-01-07T15:47:47.731Z,10.57
2024-01-07T15:50:15.600Z,14.60
2024-01-07T15:52:44.362Z,14.15
2024-01-07T15:55:21.897Z,9.45
2024-01-07T15:57:49.361Z,9.77
2024-01-07T16:00:17.404Z,9.20
2024-01-07T16:02:52.840Z,10.30
2024-01-07T16:05:20.440Z,16.77
2024-01-07T16:07:51.965Z,16.73
2024-01-07T16:10:25.852Z,15.88
2024-01-07T16:12:53.326Z,14.07
2024-01-07T16:15:20.684Z,16.02
2024-01-07T16:17:54.879Z,14.50
2024-01-07T16:20:22.321Z,12.02
2024-01-07T16:22:51.037Z,10.40
2024-01-07T16:25:28.978Z,9.07
2024-01-07T16:28:00.453Z,9.10
2024-01-07T16:30:37.336Z,8.70
2024-01-07T16:33:09.971Z,9.02
2024-01-07T16:35:47.253Z,10.38
2024-01-07T16:38:18.065Z,9.75
2024-01-07T16:40:48.520Z,10.45
2024-01-07T16:43:22.854Z,10.90
2024-01-07T16:45:50.461Z,9.27
2024-01-07T16:50:14.321Z,9.70
2024-01-07T16:51:12.922Z,8.68
2024-01-07T16:53:41.953Z,7.97
2024-01-07T16:56:09.412Z,8.23
2024-01-07T16:58:43.806Z,9.45
2024-01-07T17:01:11.266Z,9.00
2024-01-07T17:03:38.845Z,10.07
2024-01-07T17:06:13.065Z,17.65
2024-01-07T17:08:41.847Z,20.77
2024-01-07T17:11:09.196Z,17.08
2024-01-07T17:13:42.822Z,11.35
2024-01-07T17:16:14.701Z,10.80
2024-01-07T17:18:42.112Z,14.80
2024-01-07T17:21:15.846Z,20.35
2024-01-07T17:23:44.721Z,14.80
2024-01-07T17:26:13.468Z,18.25
2024-01-07T17:28:50.815Z,15.73
2024-01-07T17:31:18.148Z,9.20
2024-01-07T17:33:45.784Z,7.88
2024-01-07T17:36:19.822Z,6.93
2024-01-07T17:38:48.615Z,7.93
2024-01-07T17:41:19.470Z,9.13
2024-01-07T17:43:56.910Z,9.07
2024-01-07T17:46:24.298Z,8.38
2024-01-07T17:48:51.684Z,8.07
2024-01-07T17:51:26.838Z,7.35
2024-01-07T17:53:55.724Z,7.28
2024-01-07T17:56:23.078Z,7.47
2024-01-07T17:58:56.882Z,7.65
2024-01-07T18:01:24.381Z,7.65
2024-01-07T18:03:51.916Z,7.40
2024-01-07T18:06:25.941Z,7.97
2024-01-07T18:08:54.805Z,8.30
2024-01-07T18:11:24.162Z,8.60
2024-01-07T18:13:57.910Z,9.23
2024-01-07T18:16:25.276Z,9.13
2024-01-07T18:18:52.667Z,10.38
2024-01-07T18:21:34.607Z,9.73
2024-01-07T18:24:03.930Z,8.88
2024-01-07T18:26:31.382Z,10.35
2024-01-07T18:29:04.906Z,8.48
2024-01-07T18:31:32.306Z,8.70
2024-01-07T18:33:59.766Z,12.50
2024-01-07T18:36:34.166Z,11.98
2024-01-07T18:39:05.897Z,11.52
2024-01-07T18:41:33.570Z,11.70
2024-01-07T18:44:10.637Z,11.70
2024-01-07T18:46:40.100Z,12.18
2024-01-07T18:49:15.890Z,12.48
2024-01-07T18:51:43.184Z,12.98
2024-01-07T18:54:16.172Z,12.38
2024-01-07T18:56:49.856Z,10.55
2024-01-07T18:59:18.919Z,11.20
2024-01-07T19:01:46.307Z,10.63
2024-01-07T19:04:26.950Z,11.77
2024-01-07T19:06:54.675Z,11.23
2024-01-07T19:09:34.141Z,11.68
2024-01-07T19:12:03.313Z,12.32
2024-01-07T19:14:32.625Z,15.70
2024-01-07T19:17:18.554Z,18.75
2024-01-07T19:19:46.032Z,18.08
2024-01-07T19:22:19.977Z,17.27
2024-01-07T19:24:53.080Z,14.52
2024-01-07T19:27:29.341Z,12.25
2024-01-07T19:29:56.756Z,12.68
2024-01-07T19:32:26.023Z,14.43
2024-01-07T19:35:04.577Z,14.52
2024-01-07T19:37:33.521Z,16.98
2024-01-07T19:40:16.933Z,14.27
2024-01-07T19:42:44.318Z,14.10
2024-01-07T19:45:14.389Z,15.48
2024-01-07T19:47:50.073Z,16.80
2024-01-07T19:50:20.411Z,23.30
2024-01-07T19:52:47.826Z,19.55
2024-01-07T19:55:39.200Z,17.67
2024-01-07T19:58:07.844Z,15.43
2024-01-07T20:00:48.108Z,14.85
2024-01-07T20:03:15.643Z,16.02
2024-01-07T20:05:43.169Z,16.92
2024-01-07T20:08:17.985Z,16.52
2024-01-07T20:10:50.301Z,15.02
2024-01-07T20:13:19.497Z,18.50
2024-01-07T20:15:57.311Z,24.83
2024-01-07T20:18:26.831Z,13.68
2024-01-07T20:21:09.219Z,11.48
2024-01-07T20:23:36.681Z,12.32
2024-01-07T20:26:07.385Z,13.18
2024-01-07T20:28:41.065Z,13.55
2024-01-07T20:31:15.422Z,13.52
2024-01-07T20:33:52.087Z,13.60
2024-01-07T20:36:21.496Z,16.60
2024-01-07T20:38:57.693Z,29.30
2024-01-07T20:41:33.051Z,30.80
2024-01-07T20:44:01.972Z,15.30
2024-01-07T20:46:29.372Z,14.02
2024-01-07T20:49:03.188Z,14.48
2024-01-07T20:51:36.509Z,12.35
2024-01-07T20:54:10.965Z,14.50
2024-01-07T20:56:43.030Z,12.73
2024-01-07T20:59:10.886Z,12.20
2024-01-07T21:01:52.013Z,10.93
2024-01-07T21:04:19.560Z,10.90
2024-01-07T21:06:55.110Z,10.77
2024-01-07T21:09:24.954Z,16.83
2024-01-07T21:11:53.742Z,20.50
2024-01-07T21:14:29.906Z,28.15
2024-01-07T21:16:57.647Z,22.55
2024-01-07T21:19:25.025Z,16.13
2024-01-07T21:22:02.189Z,16.58
2024-01-07T21:24:29.612Z,15.68
2024-01-07T21:26:58.440Z,21.90
2024-01-07T21:29:33.069Z,24.55
2024-01-07T21:32:00.536Z,15.52
2024-01-07T21:34:29.172Z,15.68
2024-01-07T21:37:02.953Z,15.13
2024-01-07T21:39:30.351Z,15.30
2024-01-07T21:42:10.987Z,16.48
2024-01-07T21:44:38.362Z,13.30
2024-01-07T21:47:06.015Z,12.30
2024-01-07T21:49:39.957Z,15.55
2024-01-07T21:52:07.409Z,19.27
2024-01-07T21:54:36.785Z,19.88
2024-01-07T21:57:13.009Z,19.50
2024-01-07T21:59:40.405Z,16.65
2024-01-07T22:02:11.139Z,19.52
2024-01-07T22:04:45.595Z,18.30
2024-01-07T22:07:13.135Z,14.85
2024-01-07T22:09:40.558Z,13.60
2024-01-07T22:12:15.963Z,17.75
2024-01-07T22:14:43.278Z,14.90
2024-01-07T22:17:10.616Z,11.63
2024-01-07T22:19:47.449Z,12.02
2024-01-07T22:22:14.812Z,10.65
2024-01-07T22:24:42.118Z,9.65
2024-01-07T22:27:22.186Z,8.80
2024-01-07T22:29:49.636Z,9.20
2024-01-07T22:32:17.089Z,8.75
2024-01-07T22:34:51.011Z,10.23
2024-01-07T22:37:18.414Z,10.18
2024-01-07T22:39:45.756Z,10.68
2024-01-07T22:42:24.010Z,10.05
2024-01-07T22:44:51.313Z,10.57
2024-01-07T22:47:18.728Z,9.35
2024-01-07T22:49:56.471Z,9.63
2024-01-07T22:52:25.267Z,10.13
2024-01-07T22:54:53.976Z,8.38
2024-01-07T22:57:30.171Z,7.38
2024-01-07T22:59:57.506Z,7.30
2024-01-07T23:02:26.030Z,8.15
2024-01-07T23:05:00.053Z,7.00
2024-01-07T23:07:30.422Z,6.80
2024-01-07T23:09:57.798Z,6.43
2024-01-07T23:12:33.031Z,7.53
2024-01-07T23:15:00.380Z,7.40
2024-01-07T23:17:28.104Z,6.75
2024-01-07T23:20:05.020Z,5.75
2024-01-07T23:22:34.903Z,6.40
2024-01-07T23:25:24.595Z,6.10
2024-01-07T23:27:56.895Z,5.72
2024-01-07T23:33:17.405Z,6.32
2024-01-07T23:36:13.053Z,6.30
2024-01-07T23:38:40.582Z,6.20
2024-01-07T23:41:30.597Z,6.25
2024-01-07T23:44:04.243Z,5.50
2024-01-07T23:46:38.085Z,5.00
2024-01-07T23:49:05.501Z,6.00
2024-01-07T23:51:33.022Z,6.00
2024-01-07T23:54:07.030Z,6.45
2024-01-07T23:56:40.429Z,6.07
2024-01-07T23:59:16.111Z,6.82
